createdAt,value
2022-11-20T00:02:01.687Z,96.05
2022-11-20T00:04:04.694Z,95.96
2022-11-20T00:06:10.066Z,95.94
2022-11-20T00:08:13.458Z,96.48
2022-11-20T00:10:16.153Z,96.44
2022-11-20T00:12:18.760Z,96.49
2022-11-20T00:14:21.479Z,96.16
2022-11-20T00:16:26.413Z,96.65
2022-11-20T00:18:29.617Z,96.65
2022-11-20T00:20:32.229Z,97.04
2022-11-20T00:22:34.836Z,97.04
2022-11-20T00:24:42.741Z,97.21
2022-11-20T00:26:45.744Z,97.00
2022-11-20T00:28:54.127Z,97.60
2022-11-20T00:31:04.024Z,97.19
2022-11-20T00:33:06.718Z,97.70
2022-11-20T00:35:09.452Z,97.45
2022-11-20T00:37:12.167Z,97.81
2022-11-20T00:39:15.278Z,97.37
2022-11-20T00:41:17.801Z,97.40
2022-11-20T00:43:20.388Z,97.85
2022-11-20T00:45:22.940Z,97.76
2022-11-20T00:47:25.508Z,97.62
2022-11-20T00:49:28.166Z,97.62
2022-11-20T00:51:30.715Z,97.62
2022-11-20T00:53:33.801Z,97.23
2022-11-20T00:55:36.379Z,97.41
2022-11-20T00:57:38.904Z,97.55
2022-11-20T00:59:41.545Z,96.98
2022-11-20T01:01:44.134Z,96.80
2022-11-20T01:03:49.317Z,96.84
2022-11-20T01:05:51.897Z,96.85
2022-11-20T01:07:54.470Z,96.77
2022-11-20T01:09:57.093Z,97.13
2022-11-20T01:12:00.297Z,96.93
2022-11-20T01:14:05.556Z,96.83
2022-11-20T01:16:12.091Z,96.78
2022-11-20T01:18:14.711Z,96.98
2022-11-20T01:20:17.307Z,96.75
2022-11-20T01:22:19.843Z,96.61
2022-11-20T01:24:23.819Z,97.24
2022-11-20T01:26:33.321Z,96.67
2022-11-20T01:28:36.292Z,96.76
2022-11-20T01:30:38.892Z,96.76
2022-11-20T01:32:41.514Z,96.64
2022-11-20T01:34:44.131Z,96.49
2022-11-20T01:36:48.449Z,97.05
2022-11-20T01:38:58.759Z,96.64
2022-11-20T01:41:01.487Z,96.89
2022-11-20T01:43:22.520Z,96.49
2022-11-20T01:46:15.625Z,96.75
2022-11-20T01:48:21.186Z,96.44
2022-11-20T01:50:34.860Z,96.32
2022-11-20T01:52:56.428Z,96.59
2022-11-20T01:55:07.726Z,96.23
2022-11-20T01:57:13.349Z,96.58
2022-11-20T01:59:20.225Z,96.64
2022-11-20T02:01:23.330Z,96.38
2022-11-20T02:03:26.550Z,96.28
2022-11-20T02:05:47.522Z,97.06
2022-11-20T02:07:51.660Z,96.36
2022-11-20T02:09:58.596Z,96.60
2022-11-20T02:12:02.037Z,96.51
2022-11-20T02:14:05.077Z,96.89
2022-11-20T02:16:13.080Z,96.58
2022-11-20T02:18:18.954Z,96.68
2022-11-20T02:20:21.671Z,96.68
2022-11-20T02:22:32.163Z,96.88
2022-11-20T02:24:35.558Z,96.40
2022-11-20T02:27:06.415Z,96.29
2022-11-20T02:29:09.035Z,96.32
2022-11-20T02:31:11.858Z,96.25
2022-11-20T02:33:14.591Z,95.78
2022-11-20T02:35:19.899Z,95.49
2022-11-20T02:37:22.972Z,95.97
2022-11-20T02:39:28.131Z,96.14
2022-11-20T02:41:38.716Z,96.15
2022-11-20T02:43:41.309Z,96.08
2022-11-20T02:45:43.922Z,96.05
2022-11-20T02:47:46.517Z,96.35
2022-11-20T02:49:49.236Z,95.95
2022-11-20T02:51:51.925Z,95.90
2022-11-20T02:53:54.511Z,96.20
2022-11-20T02:55:57.096Z,96.01
2022-11-20T02:57:59.628Z,95.82
2022-11-20T03:00:02.445Z,95.91
2022-11-20T03:02:08.205Z,95.92
2022-11-20T03:04:10.864Z,96.24
2022-11-20T03:06:13.573Z,95.96
2022-11-20T03:08:16.163Z,96.04
2022-11-20T03:10:18.764Z,96.02
2022-11-20T03:12:21.360Z,96.35
2022-11-20T03:14:23.987Z,95.82
2022-11-20T03:16:26.693Z,95.91
2022-11-20T03:18:30.148Z,95.63
2022-11-20T03:20:34.086Z,95.59
2022-11-20T03:22:36.715Z,95.52
2022-11-20T03:24:39.341Z,95.14
2022-11-20T03:26:42.175Z,95.54
2022-11-20T03:28:50.220Z,95.68
2022-11-20T03:30:52.770Z,94.96
2022-11-20T03:32:55.629Z,95.25
2022-11-20T03:34:58.285Z,95.63
2022-11-20T03:37:00.829Z,95.80
2022-11-20T03:39:03.572Z,95.08
2022-11-20T03:41:10.824Z,95.70
2022-11-20T03:43:13.547Z,94.95
2022-11-20T03:45:17.861Z,95.20
2022-11-20T03:47:20.537Z,95.55
2022-11-20T03:49:23.438Z,95.64
2022-11-20T03:51:31.603Z,95.08
2022-11-20T03:53:34.386Z,95.10
2022-11-20T03:55:37.069Z,94.84
2022-11-20T03:57:39.738Z,95.18
2022-11-20T03:59:42.372Z,95.19
2022-11-20T04:01:49.295Z,94.89
2022-11-20T04:03:54.357Z,94.81
2022-11-20T04:05:56.899Z,94.98
2022-11-20T04:07:59.505Z,94.83
2022-11-20T04:10:02.080Z,95.08
2022-11-20T04:12:06.017Z,94.92
2022-11-20T04:14:15.020Z,95.02
2022-11-20T04:16:18.731Z,95.10
2022-11-20T04:18:21.247Z,94.56
2022-11-20T04:20:23.912Z,94.74
2022-11-20T04:22:26.477Z,94.93
2022-11-20T04:24:29.036Z,94.68
2022-11-20T04:26:32.178Z,94.92
2022-11-20T04:28:35.476Z,95.16
2022-11-20T04:30:38.014Z,94.72
2022-11-20T04:32:40.913Z,94.80
2022-11-20T04:34:43.538Z,94.03
2022-11-20T04:36:46.192Z,94.50
2022-11-20T04:38:57.297Z,94.42
2022-11-20T04:41:01.547Z,94.85
2022-11-20T04:43:04.254Z,94.64
2022-11-20T04:45:07.479Z,94.43
2022-11-20T04:47:10.076Z,94.72
2022-11-20T04:49:13.059Z,94.95
2022-11-20T04:51:16.311Z,94.26
2022-11-20T04:53:19.876Z,94.72
2022-11-20T04:55:22.486Z,94.53
2022-11-20T04:57:25.077Z,94.76
2022-11-20T04:59:27.629Z,94.30
2022-11-20T05:01:30.800Z,93.89
2022-11-20T05:03:34.299Z,94.09
2022-11-20T05:05:38.989Z,93.61
2022-11-20T05:07:41.650Z,93.20
2022-11-20T05:09:44.239Z,93.31
2022-11-20T05:11:51.228Z,93.82
2022-11-20T05:13:54.461Z,93.54
2022-11-20T05:16:01.741Z,94.15
2022-11-20T05:18:04.451Z,93.55
2022-11-20T05:20:07.740Z,93.59
2022-11-20T05:22:10.702Z,93.58
2022-11-20T05:24:13.436Z,93.51
2022-11-20T05:26:19.516Z,93.85
2022-11-20T05:28:23.258Z,94.15
2022-11-20T05:30:25.773Z,93.48
2022-11-20T05:32:28.313Z,93.64
2022-11-20T05:34:31.005Z,93.97
2022-11-20T05:36:33.797Z,93.68
2022-11-20T05:38:36.399Z,93.15
2022-11-20T05:40:38.994Z,93.86
2022-11-20T05:42:41.558Z,93.39
2022-11-20T05:44:44.172Z,93.74
2022-11-20T05:46:46.729Z,93.42
2022-11-20T05:48:49.360Z,93.79
2022-11-20T05:50:52.048Z,94.09
2022-11-20T05:52:54.777Z,93.45
2022-11-20T05:54:58.060Z,93.56
2022-11-20T05:57:01.426Z,93.72
2022-11-20T05:59:04.308Z,93.35
2022-11-20T06:01:20.604Z,93.32
2022-11-20T06:03:23.661Z,93.59
2022-11-20T06:05:26.368Z,93.53
2022-11-20T06:07:28.971Z,93.30
2022-11-20T06:09:32.621Z,93.12
2022-11-20T06:11:35.430Z,93.18
2022-11-20T06:13:42.044Z,93.40
2022-11-20T06:15:54.935Z,93.07
2022-11-20T06:17:57.727Z,93.21
2022-11-20T06:20:00.334Z,93.82
2022-11-20T06:22:02.900Z,93.87
2022-11-20T06:24:05.738Z,93.70
2022-11-20T06:26:11.035Z,93.10
2022-11-20T06:28:13.608Z,93.53
2022-11-20T06:30:16.527Z,93.19
2022-11-20T06:32:19.087Z,93.49
2022-11-20T06:34:21.695Z,93.22
2022-11-20T06:36:24.488Z,93.76
2022-11-20T06:38:28.714Z,93.48
2022-11-20T06:40:31.322Z,93.45
2022-11-20T06:42:33.913Z,93.53
2022-11-20T06:44:36.562Z,93.65
2022-11-20T06:46:39.274Z,93.87
2022-11-20T06:48:42.235Z,94.14
2022-11-20T06:50:44.864Z,93.72
2022-11-20T06:52:47.394Z,93.45
2022-11-20T06:54:50.140Z,92.44
2022-11-20T06:56:52.774Z,92.72
2022-11-20T06:58:55.370Z,92.52
2022-11-20T07:01:06.949Z,93.14
2022-11-20T07:03:11.315Z,92.43
2022-11-20T07:05:13.948Z,91.93
2022-11-20T07:07:16.586Z,91.91
2022-11-20T07:09:19.189Z,91.73
2022-11-20T07:11:21.937Z,91.46
2022-11-20T07:13:24.556Z,91.57
2022-11-20T07:15:27.353Z,92.20
2022-11-20T07:17:30.029Z,91.61
2022-11-20T07:19:32.704Z,92.02
2022-11-20T07:21:35.590Z,91.14
2022-11-20T07:23:39.245Z,91.24
2022-11-20T07:25:41.958Z,90.70
2022-11-20T07:27:44.918Z,90.25
2022-11-20T07:29:47.497Z,90.96
2022-11-20T07:31:50.138Z,91.55
2022-11-20T07:33:52.845Z,91.02
2022-11-20T07:35:55.656Z,90.37
2022-11-20T07:37:58.426Z,91.02
2022-11-20T07:40:01.493Z,90.64
2022-11-20T07:42:08.302Z,90.54
2022-11-20T07:44:11.380Z,90.97
2022-11-20T07:46:14.255Z,90.33
2022-11-20T07:48:16.917Z,90.26
2022-11-20T07:50:21.482Z,90.87
2022-11-20T07:52:25.040Z,90.90
2022-11-20T07:54:27.795Z,90.10
2022-11-20T07:56:30.824Z,90.82
2022-11-20T07:58:35.605Z,90.29
2022-11-20T08:00:38.372Z,90.97
2022-11-20T08:02:42.362Z,90.95
2022-11-20T08:04:45.038Z,90.29
2022-11-20T08:06:47.986Z,90.35
2022-11-20T08:08:50.571Z,90.97
2022-11-20T08:10:53.220Z,89.91
2022-11-20T08:13:14.118Z,89.91
2022-11-20T08:15:16.753Z,89.83
2022-11-20T08:17:19.361Z,89.32
2022-11-20T08:19:22.353Z,89.70
2022-11-20T08:21:25.469Z,90.20
2022-11-20T08:23:28.085Z,90.10
2022-11-20T08:25:32.075Z,90.09
2022-11-20T08:27:34.882Z,89.93
2022-11-20T08:29:37.921Z,90.14
2022-11-20T08:31:40.566Z,90.29
2022-11-20T08:33:43.373Z,89.99
2022-11-20T08:35:46.325Z,90.25
2022-11-20T08:37:49.735Z,90.51
2022-11-20T08:39:53.842Z,91.13
2022-11-20T08:41:56.520Z,90.39
2022-11-20T08:44:01.453Z,91.04
2022-11-20T08:46:04.184Z,90.66
2022-11-20T08:48:06.901Z,91.10
2022-11-20T08:50:11.029Z,90.14
2022-11-20T08:52:13.645Z,91.57
2022-11-20T08:54:16.359Z,91.32
2022-11-20T08:56:19.127Z,91.17
2022-11-20T08:58:21.958Z,91.33
2022-11-20T09:00:24.965Z,91.52
2022-11-20T09:02:27.793Z,90.91
2022-11-20T09:04:30.417Z,90.85
2022-11-20T09:06:33.168Z,90.33
2022-11-20T09:08:37.169Z,90.62
2022-11-20T09:10:42.782Z,91.38
2022-11-20T09:12:45.404Z,91.50
2022-11-20T09:14:52.174Z,91.60
2022-11-20T09:16:57.918Z,91.32
2022-11-20T09:19:34.069Z,91.12
2022-11-20T09:21:24.954Z,91.58
2022-11-20T09:23:28.765Z,90.98
2022-11-20T09:25:31.430Z,91.00
2022-11-20T09:27:33.987Z,91.00
2022-11-20T09:29:36.702Z,91.00
2022-11-20T09:31:39.331Z,91.23
2022-11-20T09:33:41.978Z,91.38
2022-11-20T09:35:45.213Z,90.34
2022-11-20T09:37:47.845Z,90.34
2022-11-20T09:39:50.599Z,91.00
2022-11-20T09:42:24.305Z,90.38
2022-11-20T09:45:07.104Z,90.23
2022-11-20T09:47:18.142Z,89.63
2022-11-20T09:49:36.837Z,89.81
2022-11-20T09:51:45.048Z,90.10
2022-11-20T09:53:53.906Z,89.63
2022-11-20T09:55:57.552Z,89.97
2022-11-20T09:58:01.063Z,90.52
2022-11-20T10:00:07.272Z,89.95
2022-11-20T10:02:25.348Z,90.44
2022-11-20T10:04:36.672Z,89.95
2022-11-20T10:07:10.466Z,90.94
2022-11-20T10:09:28.231Z,90.88
2022-11-20T10:11:49.606Z,90.85
2022-11-20T10:14:00.897Z,90.13
2022-11-20T10:16:27.222Z,89.33
2022-11-20T10:18:55.263Z,89.37
2022-11-20T10:21:39.721Z,90.28
2022-11-20T10:23:54.308Z,90.56
2022-11-20T10:26:24.277Z,89.77
2022-11-20T10:28:42.888Z,90.39
2022-11-20T10:30:56.546Z,89.66
2022-11-20T10:33:29.064Z,89.95
2022-11-20T10:35:44.362Z,89.58
2022-11-20T10:37:52.691Z,89.22
2022-11-20T10:40:26.319Z,89.93
2022-11-20T10:42:46.532Z,89.29
2022-11-20T10:45:06.607Z,89.18
2022-11-20T10:47:19.661Z,89.08
2022-11-20T10:49:22.613Z,89.69
2022-11-20T10:51:40.045Z,89.57
2022-11-20T10:53:54.409Z,89.94
2022-11-20T10:56:08.741Z,89.96
2022-11-20T10:58:24.558Z,89.29
2022-11-20T11:00:27.268Z,89.74
2022-11-20T11:02:40.237Z,89.87
2022-11-20T11:04:48.867Z,90.26
2022-11-20T11:06:56.135Z,89.99
2022-11-20T11:09:04.423Z,90.19
2022-11-20T11:11:21.902Z,90.05
2022-11-20T11:13:28.286Z,90.84
2022-11-20T11:15:43.040Z,91.17
2022-11-20T11:17:48.926Z,91.36
2022-11-20T11:20:08.184Z,91.54
2022-11-20T11:22:19.362Z,90.75
2022-11-20T11:24:46.972Z,91.66
2022-11-20T11:27:05.550Z,90.93
2022-11-20T11:29:19.139Z,91.18
2022-11-20T11:31:26.538Z,91.12
2022-11-20T11:33:31.858Z,91.57
2022-11-20T11:35:34.895Z,91.41
2022-11-20T11:37:40.003Z,91.04
2022-11-20T11:39:44.473Z,91.43
2022-11-20T11:41:47.935Z,91.95
2022-11-20T11:44:20.302Z,91.51
2022-11-20T11:46:25.685Z,92.33
2022-11-20T11:48:28.385Z,91.91
2022-11-20T11:50:32.169Z,92.73
2022-11-20T11:52:44.157Z,92.42
2022-11-20T11:54:56.668Z,93.62
2022-11-20T11:57:06.741Z,93.72
2022-11-20T11:59:18.312Z,93.48
2022-11-20T12:01:53.016Z,93.32
2022-11-20T12:04:20.598Z,93.35
2022-11-20T12:06:24.620Z,93.77
2022-11-20T12:08:42.914Z,94.12
2022-11-20T12:11:13.381Z,94.55
2022-11-20T12:13:25.044Z,94.59
2022-11-20T12:15:34.308Z,95.14
2022-11-20T12:17:36.987Z,94.18
2022-11-20T12:19:39.639Z,95.03
2022-11-20T12:21:51.243Z,94.46
2022-11-20T12:24:25.814Z,94.94
2022-11-20T12:26:40.686Z,95.06
2022-11-20T12:28:54.259Z,95.49
2022-11-20T12:31:46.314Z,95.32
2022-11-20T12:34:07.194Z,95.84
2022-11-20T12:36:36.727Z,96.66
2022-11-20T12:39:03.669Z,96.39
2022-11-20T12:41:41.912Z,95.85
2022-11-20T12:44:20.205Z,96.37
2022-11-20T12:46:35.525Z,97.02
2022-11-20T12:48:41.056Z,96.92
2022-11-20T12:51:18.986Z,97.29
2022-11-20T12:53:58.769Z,97.74
2022-11-20T12:56:16.247Z,98.02
2022-11-20T12:58:40.624Z,98.27
2022-11-20T13:00:54.898Z,98.13
2022-11-20T13:03:06.280Z,98.09
2022-11-20T13:05:21.276Z,98.37
2022-11-20T13:07:27.444Z,98.45
2022-11-20T13:09:31.211Z,98.57
2022-11-20T13:11:46.301Z,98.83
2022-11-20T13:14:16.748Z,98.87
2022-11-20T13:16:28.541Z,99.37
2022-11-20T13:18:39.018Z,99.17
2022-11-20T13:20:46.834Z,98.92
2022-11-20T13:22:55.859Z,98.99
2022-11-20T13:24:58.504Z,99.13
2022-11-20T13:27:10.020Z,99.30
2022-11-20T13:29:18.859Z,98.91
2022-11-20T13:31:36.053Z,98.96
2022-11-20T13:33:39.989Z,99.22
2022-11-20T13:35:43.987Z,99.57
2022-11-20T13:37:46.600Z,99.89
2022-11-20T13:39:49.319Z,99.54
2022-11-20T13:42:03.452Z,99.62
2022-11-20T13:44:24.905Z,99.41
2022-11-20T13:46:43.924Z,99.30
2022-11-20T13:48:47.844Z,99.90
2022-11-20T13:51:15.093Z,99.62
2022-11-20T13:53:53.636Z,99.00
2022-11-20T13:56:02.969Z,99.00
2022-11-20T13:58:44.384Z,99.51
2022-11-20T14:00:58.451Z,99.75
2022-11-20T14:03:44.144Z,99.69
2022-11-20T14:06:04.211Z,100.00
2022-11-20T14:08:14.573Z,100.00
2022-11-20T14:10:31.393Z,100.00
2022-11-20T14:12:35.311Z,100.00
2022-11-20T14:14:50.066Z,100.00
2022-11-20T14:16:54.882Z,99.99
2022-11-20T14:18:58.939Z,100.00
2022-11-20T14:21:03.173Z,100.00
2022-11-20T14:23:06.463Z,100.00
2022-11-20T14:25:18.254Z,99.98
2022-11-20T14:27:22.580Z,100.00
2022-11-20T14:29:30.545Z,99.68
2022-11-20T14:31:33.268Z,99.80
2022-11-20T14:33:36.734Z,100.00
2022-11-20T14:35:47.093Z,100.00
2022-11-20T14:37:49.804Z,99.53
2022-11-20T14:39:56.384Z,99.99
2022-11-20T14:41:59.102Z,99.54
2022-11-20T14:44:03.223Z,100.00
2022-11-20T14:46:12.341Z,99.97
2022-11-20T14:48:16.971Z,99.90
2022-11-20T14:50:24.486Z,99.89
2022-11-20T14:52:28.986Z,100.00
2022-11-20T14:54:31.959Z,100.00
2022-11-20T14:56:34.645Z,99.80
2022-11-20T14:58:37.342Z,100.00
2022-11-20T15:00:40.224Z,100.00
2022-11-20T15:02:47.980Z,100.00
2022-11-20T15:05:00.593Z,100.00
2022-11-20T15:07:03.303Z,100.00
2022-11-20T15:09:14.977Z,100.00
2022-11-20T15:11:27.271Z,100.00
2022-11-20T15:13:35.887Z,100.00
2022-11-20T15:15:56.710Z,100.00
2022-11-20T15:17:59.900Z,100.00
2022-11-20T15:20:04.599Z,100.00
2022-11-20T15:22:14.317Z,100.00
2022-11-20T15:24:17.053Z,100.00
2022-11-20T15:26:28.851Z,100.00
2022-11-20T15:28:41.568Z,100.00
2022-11-20T15:30:44.496Z,100.00
2022-11-20T15:32:48.351Z,100.00
2022-11-20T15:34:50.933Z,100.00
2022-11-20T15:36:54.278Z,100.00
2022-11-20T15:38:57.432Z,100.00
2022-11-20T15:41:00.089Z,100.00
2022-11-20T15:43:12.632Z,100.00
2022-11-20T15:45:16.138Z,100.00
2022-11-20T15:47:20.061Z,100.00
2022-11-20T15:49:24.872Z,100.00
2022-11-20T15:51:39.372Z,100.00
2022-11-20T15:53:43.064Z,100.00
2022-11-20T15:55:45.722Z,100.00
2022-11-20T15:57:48.277Z,100.00
2022-11-20T15:59:50.829Z,100.00
2022-11-20T16:01:53.443Z,99.90
2022-11-20T16:03:56.163Z,99.78
2022-11-20T16:05:58.869Z,100.00
2022-11-20T16:08:04.954Z,99.82
2022-11-20T16:10:11.212Z,99.87
2022-11-20T16:12:33.995Z,99.82
2022-11-20T16:14:55.059Z,99.66
2022-11-20T16:16:57.737Z,99.86
2022-11-20T16:19:01.522Z,99.58
2022-11-20T16:21:04.975Z,99.44
2022-11-20T16:23:08.205Z,99.75
2022-11-20T16:25:10.964Z,98.98
2022-11-20T16:27:13.634Z,99.14
2022-11-20T16:29:16.310Z,99.30
2022-11-20T16:31:20.757Z,99.44
2022-11-20T16:33:23.505Z,98.96
2022-11-20T16:35:28.627Z,98.75
2022-11-20T16:37:31.324Z,99.63
2022-11-20T16:39:33.997Z,98.75
2022-11-20T16:41:37.339Z,99.38
2022-11-20T16:44:01.577Z,99.17
2022-11-20T16:46:05.106Z,98.95
2022-11-20T16:48:07.712Z,99.11
2022-11-20T16:50:11.242Z,99.03
2022-11-20T16:52:14.403Z,98.69
2022-11-20T16:54:20.763Z,98.84
2022-11-20T16:56:26.353Z,98.94
2022-11-20T16:58:28.865Z,98.74
2022-11-20T17:00:31.399Z,99.10
2022-11-20T17:02:34.145Z,99.05
2022-11-20T17:04:37.342Z,98.44
2022-11-20T17:06:44.420Z,99.08
2022-11-20T17:08:47.813Z,99.22
2022-11-20T17:10:50.376Z,99.09
2022-11-20T17:12:53.292Z,99.38
2022-11-20T17:14:55.967Z,99.11
2022-11-20T17:16:58.824Z,99.02
2022-11-20T17:19:03.565Z,99.04
2022-11-20T17:21:07.272Z,98.72
2022-11-20T17:23:10.279Z,99.03
2022-11-20T17:25:12.921Z,98.77
2022-11-20T17:27:15.711Z,98.84
2022-11-20T17:29:21.808Z,98.50
2022-11-20T17:31:24.444Z,98.44
2022-11-20T17:33:27.157Z,98.48
2022-11-20T17:35:29.826Z,98.67
2022-11-20T17:37:32.468Z,98.76
2022-11-20T17:39:35.139Z,98.42
2022-11-20T17:41:38.088Z,98.39
2022-11-20T17:43:42.958Z,98.61
2022-11-20T17:45:45.723Z,98.45
2022-11-20T17:47:48.427Z,98.99
2022-11-20T17:49:51.544Z,98.45
2022-11-20T17:51:55.036Z,98.61
2022-11-20T17:54:01.036Z,98.16
2022-11-20T17:56:23.588Z,98.92
2022-11-20T17:58:29.290Z,98.71
2022-11-20T18:00:31.907Z,99.25
2022-11-20T18:02:34.685Z,99.11
2022-11-20T18:04:37.603Z,98.48
2022-11-20T18:06:40.551Z,98.69
2022-11-20T18:08:44.596Z,98.84
2022-11-20T18:10:47.268Z,99.14
2022-11-20T18:12:49.898Z,99.30
2022-11-20T18:14:52.568Z,98.75
2022-11-20T18:17:10.251Z,99.03
2022-11-20T18:19:18.742Z,99.04
2022-11-20T18:21:21.770Z,98.70
2022-11-20T18:23:24.392Z,98.64
2022-11-20T18:25:27.116Z,97.99
2022-11-20T18:27:30.037Z,98.18
2022-11-20T18:29:32.724Z,98.46
2022-11-20T18:31:35.356Z,98.62
2022-11-20T18:33:38.312Z,98.07
2022-11-20T18:35:43.038Z,98.43
2022-11-20T18:37:45.700Z,98.44
2022-11-20T18:39:50.574Z,99.27
2022-11-20T18:42:12.016Z,99.61
2022-11-20T18:44:34.228Z,98.86
2022-11-20T18:46:36.817Z,98.48
2022-11-20T18:48:39.506Z,98.72
2022-11-20T18:50:42.084Z,98.71
2022-11-20T18:52:45.001Z,98.42
2022-11-20T18:54:47.749Z,98.52
2022-11-20T18:56:50.799Z,98.22
2022-11-20T18:58:54.686Z,98.21
2022-11-20T19:01:06.393Z,98.50
2022-11-20T19:03:09.071Z,98.30
2022-11-20T19:05:13.660Z,98.64
2022-11-20T19:07:16.834Z,98.07
2022-11-20T19:09:19.627Z,98.22
2022-11-20T19:11:22.340Z,98.52
2022-11-20T19:13:25.035Z,98.93
2022-11-20T19:15:29.028Z,98.41
2022-11-20T19:17:33.598Z,98.21
2022-11-20T19:19:36.279Z,98.25
2022-11-20T19:21:39.016Z,98.27
2022-11-20T19:23:42.061Z,98.39
2022-11-20T19:25:44.654Z,98.14
2022-11-20T19:27:47.260Z,98.68
2022-11-20T19:29:50.052Z,97.90
2022-11-20T19:31:53.501Z,98.24
2022-11-20T19:34:01.329Z,98.23
2022-11-20T19:36:16.499Z,97.58
2022-11-20T19:38:19.184Z,97.95
2022-11-20T19:40:22.270Z,97.40
2022-11-20T19:42:25.364Z,97.71
2022-11-20T19:44:28.011Z,97.92
2022-11-20T19:46:32.728Z,97.86
2022-11-20T19:48:37.837Z,98.11
2022-11-20T19:50:40.410Z,97.92
2022-11-20T19:52:42.981Z,98.18
2022-11-20T19:54:45.827Z,98.53
2022-11-20T19:56:49.669Z,98.11
2022-11-20T19:58:56.289Z,97.80
2022-11-20T20:01:09.726Z,98.80
2022-11-20T20:03:12.436Z,98.78
2022-11-20T20:05:15.072Z,98.63
2022-11-20T20:07:17.930Z,98.34
2022-11-20T20:09:22.683Z,98.82
2022-11-20T20:11:27.842Z,98.66
2022-11-20T20:13:30.350Z,98.05
2022-11-20T20:15:33.207Z,98.65
2022-11-20T20:17:35.759Z,98.56
2022-11-20T20:19:38.393Z,99.05
2022-11-20T20:21:41.692Z,98.78
2022-11-20T20:23:45.058Z,98.88
2022-11-20T20:25:48.838Z,99.15
2022-11-20T20:27:51.459Z,99.27
2022-11-20T20:29:54.035Z,99.38
2022-11-20T20:31:56.796Z,99.31
2022-11-20T20:33:59.981Z,99.00
2022-11-20T20:36:02.523Z,99.02
2022-11-20T20:38:05.212Z,99.05
2022-11-20T20:40:12.237Z,98.59
2022-11-20T20:42:17.720Z,99.03
2022-11-20T20:44:38.994Z,98.67
2022-11-20T20:46:41.912Z,98.66
2022-11-20T20:48:44.620Z,98.96
2022-11-20T20:50:55.165Z,98.79
2022-11-20T20:52:57.777Z,98.58
2022-11-20T20:55:00.551Z,98.28
2022-11-20T20:57:03.279Z,98.20
2022-11-20T20:59:06.588Z,98.42
2022-11-20T21:01:12.997Z,98.68
2022-11-20T21:03:15.791Z,98.38
2022-11-20T21:05:18.338Z,98.43
2022-11-20T21:07:21.513Z,98.38
2022-11-20T21:09:24.364Z,98.26
2022-11-20T21:11:27.549Z,98.43
2022-11-20T21:13:30.856Z,97.87
2022-11-20T21:15:33.508Z,98.26
2022-11-20T21:17:36.522Z,97.93
2022-11-20T21:19:39.133Z,98.57
2022-11-20T21:21:59.853Z,98.37
2022-11-20T21:24:02.924Z,98.28
2022-11-20T21:26:08.761Z,98.26
2022-11-20T21:28:15.611Z,97.75
2022-11-20T21:30:20.825Z,98.36
2022-11-20T21:32:23.473Z,98.60
2022-11-20T21:34:26.526Z,98.43
2022-11-20T21:36:31.198Z,98.12
2022-11-20T21:38:34.597Z,98.33
2022-11-20T21:40:37.238Z,97.75
2022-11-20T21:42:39.818Z,98.76
2022-11-20T21:44:42.705Z,98.24
2022-11-20T21:46:46.591Z,98.20
2022-11-20T21:48:49.442Z,97.82
2022-11-20T21:50:52.012Z,97.90
2022-11-20T21:52:54.656Z,97.74
2022-11-20T21:54:57.260Z,97.41
2022-11-20T21:57:00.424Z,96.99
2022-11-20T21:59:03.133Z,97.55
2022-11-20T22:01:25.596Z,98.13
2022-11-20T22:03:28.317Z,97.70
2022-11-20T22:05:30.984Z,97.46
2022-11-20T22:07:33.653Z,97.97
2022-11-20T22:09:36.335Z,97.37
2022-11-20T22:11:39.050Z,96.86
2022-11-20T22:14:00.995Z,96.61
2022-11-20T22:16:03.894Z,96.84
2022-11-20T22:18:12.828Z,97.00
2022-11-20T22:20:18.556Z,96.88
2022-11-20T22:22:21.226Z,97.08
2022-11-20T22:24:24.280Z,97.34
2022-11-20T22:26:33.912Z,96.87
2022-11-20T22:28:40.470Z,96.92
2022-11-20T22:30:43.072Z,96.54
2022-11-20T22:32:45.729Z,96.83
2022-11-20T22:34:48.341Z,97.46
2022-11-20T22:36:50.927Z,97.50
2022-11-20T22:38:53.519Z,97.78
2022-11-20T22:41:10.592Z,97.58
2022-11-20T22:43:13.247Z,97.58
2022-11-20T22:45:16.250Z,97.57
2022-11-20T22:47:18.935Z,97.41
2022-11-20T22:49:21.629Z,97.03
2022-11-20T22:51:26.876Z,97.11
2022-11-20T22:53:29.546Z,96.69
2022-11-20T22:55:34.085Z,97.07
2022-11-20T22:57:37.123Z,97.55
2022-11-20T22:59:40.353Z,97.58
2022-11-20T23:01:42.974Z,97.38
2022-11-20T23:03:48.695Z,97.48
2022-11-20T23:05:51.414Z,97.13
2022-11-20T23:07:53.970Z,97.26
2022-11-20T23:09:56.738Z,96.87
2022-11-20T23:11:59.266Z,97.36
2022-11-20T23:14:07.756Z,97.35
2022-11-20T23:16:15.855Z,97.30
2022-11-20T23:18:18.599Z,97.44
2022-11-20T23:20:21.412Z,97.29
2022-11-20T23:22:24.129Z,97.25
2022-11-20T23:24:26.972Z,97.35
2022-11-20T23:26:32.430Z,97.10
2022-11-20T23:28:35.333Z,97.14
2022-11-20T23:30:37.901Z,97.18
2022-11-20T23:32:40.542Z,96.57
2022-11-20T23:34:43.152Z,97.29
2022-11-20T23:36:45.691Z,97.36
2022-11-20T23:38:48.531Z,97.35
2022-11-20T23:40:52.366Z,96.66
2022-11-20T23:43:13.362Z,96.96
2022-11-20T23:45:16.091Z,96.67
2022-11-20T23:47:18.671Z,96.44
2022-11-20T23:49:21.253Z,96.84
2022-11-20T23:51:24.052Z,96.66
2022-11-20T23:53:27.563Z,96.68
2022-11-20T23:55:30.572Z,97.15
2022-11-20T23:57:33.125Z,96.75
2022-11-20T23:59:35.816Z,97.32
